sensor_id;sensor_type;location;lat;lon;timestamp;temperature;humidity
68385;DHT22;55336;43.062;25.626;2023-05-29T00:02:17;15.50;99.90
68385;DHT22;55336;43.062;25.626;2023-05-29T00:04:43;15.50;99.90
68385;DHT22;55336;43.062;25.626;2023-05-29T00:07:09;15.50;99.90
68385;DHT22;55336;43.062;25.626;2023-05-29T00:09:35;15.30;99.90
68385;DHT22;55336;43.062;25.626;2023-05-29T00:12:01;15.20;99.90
68385;DHT22;55336;43.062;25.626;2023-05-29T00:14:27;15.10;99.90
68385;DHT22;55336;43.062;25.626;2023-05-29T00:16:53;15.10;99.90
68385;DHT22;55336;43.062;25.626;2023-05-29T00:19:19;15.00;99.90
68385;DHT22;55336;43.062;25.626;2023-05-29T00:21:45;15.00;99.90
68385;DHT22;55336;43.062;25.626;2023-05-29T00:24:16;14.90;99.90
68385;DHT22;55336;43.062;25.626;2023-05-29T00:26:42;14.90;99.90
68385;DHT22;55336;43.062;25.626;2023-05-29T00:29:08;14.90;99.90
68385;DHT22;55336;43.062;25.626;2023-05-29T00:31:34;14.80;99.90
68385;DHT22;55336;43.062;25.626;2023-05-29T00:34:01;14.80;99.90
68385;DHT22;55336;43.062;25.626;2023-05-29T00:36:26;14.80;99.90
68385;DHT22;55336;43.062;25.626;2023-05-29T00:38:54;14.90;99.90
68385;DHT22;55336;43.062;25.626;2023-05-29T00:41:19;14.90;99.90
68385;DHT22;55336;43.062;25.626;2023-05-29T00:43:45;15.00;99.90
68385;DHT22;55336;43.062;25.626;2023-05-29T00:46:12;15.10;99.90
68385;DHT22;55336;43.062;25.626;2023-05-29T00:48:38;15.10;99.90
68385;DHT22;55336;43.062;25.626;2023-05-29T00:51:06;15.10;99.90
68385;DHT22;55336;43.062;25.626;2023-05-29T00:53:32;15.10;99.90
68385;DHT22;55336;43.062;25.626;2023-05-29T00:55:58;15.10;99.90
68385;DHT22;55336;43.062;25.626;2023-05-29T00:58:25;15.20;99.90
68385;DHT22;55336;43.062;25.626;2023-05-29T01:00:51;15.20;99.90
68385;DHT22;55336;43.062;25.626;2023-05-29T01:03:18;15.20;99.90
68385;DHT22;55336;43.062;25.626;2023-05-29T01:05:44;15.20;99.90
68385;DHT22;55336;43.062;25.626;2023-05-29T01:08:11;15.30;99.90
68385;DHT22;55336;43.062;25.626;2023-05-29T01:10:37;15.30;99.90
68385;DHT22;55336;43.062;25.626;2023-05-29T01:13:06;15.20;99.90
68385;DHT22;55336;43.062;25.626;2023-05-29T01:20:38;15.40;99.90
68385;DHT22;55336;43.062;25.626;2023-05-29T01:28:44;15.40;99.90
68385;DHT22;55336;43.062;25.626;2023-05-29T01:31:12;15.40;99.90
68385;DHT22;55336;43.062;25.626;2023-05-29T01:33:39;15.40;99.90
68385;DHT22;55336;43.062;25.626;2023-05-29T01:36:09;15.50;99.90
68385;DHT22;55336;43.062;25.626;2023-05-29T01:38:35;15.50;99.90
68385;DHT22;55336;43.062;25.626;2023-05-29T01:41:01;15.50;99.90
68385;DHT22;55336;43.062;25.626;2023-05-29T01:43:27;15.50;99.90
68385;DHT22;55336;43.062;25.626;2023-05-29T01:45:53;15.50;99.90
68385;DHT22;55336;43.062;25.626;2023-05-29T01:48:19;15.40;99.90
68385;DHT22;55336;43.062;25.626;2023-05-29T01:50:45;15.50;99.90
68385;DHT22;55336;43.062;25.626;2023-05-29T01:53:11;15.50;99.90
68385;DHT22;55336;43.062;25.626;2023-05-29T01:55:37;15.50;99.90
68385;DHT22;55336;43.062;25.626;2023-05-29T01:58:03;15.50;99.90
68385;DHT22;55336;43.062;25.626;2023-05-29T02:00:29;15.50;99.90
68385;DHT22;55336;43.062;25.626;2023-05-29T02:02:55;15.50;99.90
68385;DHT22;55336;43.062;25.626;2023-05-29T02:05:21;15.60;99.90
68385;DHT22;55336;43.062;25.626;2023-05-29T02:07:47;15.60;99.90
68385;DHT22;55336;43.062;25.626;2023-05-29T02:10:12;15.60;99.90
68385;DHT22;55336;43.062;25.626;2023-05-29T02:12:39;15.60;99.90
68385;DHT22;55336;43.062;25.626;2023-05-29T02:15:05;15.70;99.90
68385;DHT22;55336;43.062;25.626;2023-05-29T02:17:31;15.70;99.90
68385;DHT22;55336;43.062;25.626;2023-05-29T02:19:57;15.60;99.90
68385;DHT22;55336;43.062;25.626;2023-05-29T02:22:23;15.60;99.90
68385;DHT22;55336;43.062;25.626;2023-05-29T02:24:48;15.60;99.90
68385;DHT22;55336;43.062;25.626;2023-05-29T02:27:14;15.70;99.90
68385;DHT22;55336;43.062;25.626;2023-05-29T02:29:40;15.70;99.90
68385;DHT22;55336;43.062;25.626;2023-05-29T02:32:05;15.80;99.90
68385;DHT22;55336;43.062;25.626;2023-05-29T02:34:31;15.80;99.90
68385;DHT22;55336;43.062;25.626;2023-05-29T02:36:57;15.80;99.90
68385;DHT22;55336;43.062;25.626;2023-05-29T02:39:23;15.80;99.90
68385;DHT22;55336;43.062;25.626;2023-05-29T02:41:48;15.80;99.90
68385;DHT22;55336;43.062;25.626;2023-05-29T02:44:14;15.80;99.90
68385;DHT22;55336;43.062;25.626;2023-05-29T02:46:40;15.80;99.90
68385;DHT22;55336;43.062;25.626;2023-05-29T02:49:06;15.50;99.90
68385;DHT22;55336;43.062;25.626;2023-05-29T02:51:32;15.90;99.90
68385;DHT22;55336;43.062;25.626;2023-05-29T02:53:57;15.80;99.90
68385;DHT22;55336;43.062;25.626;2023-05-29T02:56:23;15.80;99.90
68385;DHT22;55336;43.062;25.626;2023-05-29T02:58:49;15.80;99.90
68385;DHT22;55336;43.062;25.626;2023-05-29T03:01:16;15.80;99.90
68385;DHT22;55336;43.062;25.626;2023-05-29T03:03:42;15.80;99.90
68385;DHT22;55336;43.062;25.626;2023-05-29T03:06:07;15.80;99.90
68385;DHT22;55336;43.062;25.626;2023-05-29T03:08:34;15.80;99.90
68385;DHT22;55336;43.062;25.626;2023-05-29T03:10:59;15.80;99.90
68385;DHT22;55336;43.062;25.626;2023-05-29T03:13:28;15.80;99.90
68385;DHT22;55336;43.062;25.626;2023-05-29T03:16:12;15.80;99.90
68385;DHT22;55336;43.062;25.626;2023-05-29T03:18:38;15.80;99.90
68385;DHT22;55336;43.062;25.626;2023-05-29T03:21:03;15.90;99.90
68385;DHT22;55336;43.062;25.626;2023-05-29T03:23:29;15.90;99.90
68385;DHT22;55336;43.062;25.626;2023-05-29T03:25:55;15.90;99.90
68385;DHT22;55336;43.062;25.626;2023-05-29T03:28:21;15.90;99.90
68385;DHT22;55336;43.062;25.626;2023-05-29T03:30:47;16.00;99.90
68385;DHT22;55336;43.062;25.626;2023-05-29T03:33:12;16.10;99.90
68385;DHT22;55336;43.062;25.626;2023-05-29T03:35:38;16.00;99.90
68385;DHT22;55336;43.062;25.626;2023-05-29T03:38:04;16.00;99.90
68385;DHT22;55336;43.062;25.626;2023-05-29T03:40:30;16.00;99.90
68385;DHT22;55336;43.062;25.626;2023-05-29T03:42:56;15.90;99.90
68385;DHT22;55336;43.062;25.626;2023-05-29T03:45:22;16.00;99.90
68385;DHT22;55336;43.062;25.626;2023-05-29T03:47:48;16.00;99.90
68385;DHT22;55336;43.062;25.626;2023-05-29T03:50:14;16.10;99.90
68385;DHT22;55336;43.062;25.626;2023-05-29T03:52:41;16.10;99.90
68385;DHT22;55336;43.062;25.626;2023-05-29T03:55:08;16.10;99.90
68385;DHT22;55336;43.062;25.626;2023-05-29T03:57:34;16.20;99.90
68385;DHT22;55336;43.062;25.626;2023-05-29T04:00:00;16.20;99.90
68385;DHT22;55336;43.062;25.626;2023-05-29T04:02:26;16.20;99.90
68385;DHT22;55336;43.062;25.626;2023-05-29T04:04:51;16.30;99.90
68385;DHT22;55336;43.062;25.626;2023-05-29T04:07:18;16.40;99.90
68385;DHT22;55336;43.062;25.626;2023-05-29T04:09:44;16.40;99.90
68385;DHT22;55336;43.062;25.626;2023-05-29T04:12:10;16.50;99.90
68385;DHT22;55336;43.062;25.626;2023-05-29T04:14:36;16.50;99.90
68385;DHT22;55336;43.062;25.626;2023-05-29T04:17:02;16.50;99.90
68385;DHT22;55336;43.062;25.626;2023-05-29T04:19:28;16.50;99.90
68385;DHT22;55336;43.062;25.626;2023-05-29T04:21:54;16.60;99.90
68385;DHT22;55336;43.062;25.626;2023-05-29T04:24:19;16.60;99.90
68385;DHT22;55336;43.062;25.626;2023-05-29T04:26:45;16.60;99.90
68385;DHT22;55336;43.062;25.626;2023-05-29T04:29:12;16.60;99.90
68385;DHT22;55336;43.062;25.626;2023-05-29T04:31:39;16.60;99.90
68385;DHT22;55336;43.062;25.626;2023-05-29T04:34:05;16.90;99.90
68385;DHT22;55336;43.062;25.626;2023-05-29T04:36:31;16.60;99.90
68385;DHT22;55336;43.062;25.626;2023-05-29T04:39:04;16.50;99.90
68385;DHT22;55336;43.062;25.626;2023-05-29T04:41:30;16.50;99.90
68385;DHT22;55336;43.062;25.626;2023-05-29T04:43:56;16.60;99.90
68385;DHT22;55336;43.062;25.626;2023-05-29T04:46:23;16.60;99.90
68385;DHT22;55336;43.062;25.626;2023-05-29T04:48:50;16.50;99.90
68385;DHT22;55336;43.062;25.626;2023-05-29T04:51:19;16.50;99.90
68385;DHT22;55336;43.062;25.626;2023-05-29T04:53:45;16.50;99.90
68385;DHT22;55336;43.062;25.626;2023-05-29T04:56:12;16.50;99.90
68385;DHT22;55336;43.062;25.626;2023-05-29T04:58:37;16.50;99.90
68385;DHT22;55336;43.062;25.626;2023-05-29T05:01:03;16.50;99.90
68385;DHT22;55336;43.062;25.626;2023-05-29T05:03:29;16.50;99.90
68385;DHT22;55336;43.062;25.626;2023-05-29T05:05:56;16.50;99.90
68385;DHT22;55336;43.062;25.626;2023-05-29T05:08:23;16.50;99.90
68385;DHT22;55336;43.062;25.626;2023-05-29T05:10:48;16.50;99.90
68385;DHT22;55336;43.062;25.626;2023-05-29T05:13:14;16.50;99.90
68385;DHT22;55336;43.062;25.626;2023-05-29T05:15:40;16.50;99.90
68385;DHT22;55336;43.062;25.626;2023-05-29T05:18:05;16.50;99.90
68385;DHT22;55336;43.062;25.626;2023-05-29T05:20:31;16.40;99.90
68385;DHT22;55336;43.062;25.626;2023-05-29T05:22:57;16.40;99.90
68385;DHT22;55336;43.062;25.626;2023-05-29T05:25:22;16.40;99.90
68385;DHT22;55336;43.062;25.626;2023-05-29T05:27:48;16.40;99.90
68385;DHT22;55336;43.062;25.626;2023-05-29T05:30:16;16.50;99.90
68385;DHT22;55336;43.062;25.626;2023-05-29T05:32:42;16.60;99.90
68385;DHT22;55336;43.062;25.626;2023-05-29T05:35:07;16.70;99.90
68385;DHT22;55336;43.062;25.626;2023-05-29T05:37:35;16.90;99.90
68385;DHT22;55336;43.062;25.626;2023-05-29T05:40:01;17.00;99.90
68385;DHT22;55336;43.062;25.626;2023-05-29T05:42:26;17.00;99.90
68385;DHT22;55336;43.062;25.626;2023-05-29T05:44:52;17.00;99.90
68385;DHT22;55336;43.062;25.626;2023-05-29T05:47:18;16.90;99.90
68385;DHT22;55336;43.062;25.626;2023-05-29T05:49:44;17.00;99.90
68385;DHT22;55336;43.062;25.626;2023-05-29T05:52:09;17.00;99.90
68385;DHT22;55336;43.062;25.626;2023-05-29T05:54:35;17.00;99.90
68385;DHT22;55336;43.062;25.626;2023-05-29T05:57:01;17.00;99.90
68385;DHT22;55336;43.062;25.626;2023-05-29T05:59:28;17.00;99.90
68385;DHT22;55336;43.062;25.626;2023-05-29T06:01:54;16.90;99.90
68385;DHT22;55336;43.062;25.626;2023-05-29T06:04:20;16.90;99.90
68385;DHT22;55336;43.062;25.626;2023-05-29T06:06:46;16.80;99.90
68385;DHT22;55336;43.062;25.626;2023-05-29T06:09:11;16.90;99.90
68385;DHT22;55336;43.062;25.626;2023-05-29T06:11:38;16.80;99.90
68385;DHT22;55336;43.062;25.626;2023-05-29T06:14:04;16.80;99.90
68385;DHT22;55336;43.062;25.626;2023-05-29T06:16:29;16.90;99.90
68385;DHT22;55336;43.062;25.626;2023-05-29T06:18:55;16.90;99.90
68385;DHT22;55336;43.062;25.626;2023-05-29T06:21:21;17.00;99.90
68385;DHT22;55336;43.062;25.626;2023-05-29T06:23:47;17.10;99.90
68385;DHT22;55336;43.062;25.626;2023-05-29T06:26:13;17.30;99.90
68385;DHT22;55336;43.062;25.626;2023-05-29T06:28:38;17.50;99.90
68385;DHT22;55336;43.062;25.626;2023-05-29T06:31:04;17.60;99.90
68385;DHT22;55336;43.062;25.626;2023-05-29T06:33:30;17.70;99.90
68385;DHT22;55336;43.062;25.626;2023-05-29T06:35:55;17.80;99.90
68385;DHT22;55336;43.062;25.626;2023-05-29T06:38:21;17.80;99.90
68385;DHT22;55336;43.062;25.626;2023-05-29T06:40:47;17.80;99.90
68385;DHT22;55336;43.062;25.626;2023-05-29T06:43:13;17.70;99.90
68385;DHT22;55336;43.062;25.626;2023-05-29T06:45:39;17.80;99.90
68385;DHT22;55336;43.062;25.626;2023-05-29T06:48:04;17.70;99.90
68385;DHT22;55336;43.062;25.626;2023-05-29T06:50:31;17.60;99.90
68385;DHT22;55336;43.062;25.626;2023-05-29T06:52:56;17.60;99.90
68385;DHT22;55336;43.062;25.626;2023-05-29T06:55:22;17.60;99.90
68385;DHT22;55336;43.062;25.626;2023-05-29T06:57:48;17.50;99.90
68385;DHT22;55336;43.062;25.626;2023-05-29T07:00:14;17.50;99.90
68385;DHT22;55336;43.062;25.626;2023-05-29T07:02:40;17.50;99.90
68385;DHT22;55336;43.062;25.626;2023-05-29T07:05:06;17.50;99.90
68385;DHT22;55336;43.062;25.626;2023-05-29T07:07:32;17.40;99.90
68385;DHT22;55336;43.062;25.626;2023-05-29T07:09:57;17.30;99.90
68385;DHT22;55336;43.062;25.626;2023-05-29T07:12:23;17.30;99.90
68385;DHT22;55336;43.062;25.626;2023-05-29T07:14:49;17.20;99.90
68385;DHT22;55336;43.062;25.626;2023-05-29T07:17:15;17.10;99.90
68385;DHT22;55336;43.062;25.626;2023-05-29T07:19:41;17.10;99.90
68385;DHT22;55336;43.062;25.626;2023-05-29T07:22:06;17.10;99.90
68385;DHT22;55336;43.062;25.626;2023-05-29T07:24:32;17.10;99.90
68385;DHT22;55336;43.062;25.626;2023-05-29T07:26:58;17.10;99.90
68385;DHT22;55336;43.062;25.626;2023-05-29T07:29:24;17.10;99.90
68385;DHT22;55336;43.062;25.626;2023-05-29T07:31:50;17.00;99.90
68385;DHT22;55336;43.062;25.626;2023-05-29T07:34:18;17.00;99.90
68385;DHT22;55336;43.062;25.626;2023-05-29T07:37:05;17.00;99.90
68385;DHT22;55336;43.062;25.626;2023-05-29T07:39:31;16.90;99.90
68385;DHT22;55336;43.062;25.626;2023-05-29T07:41:57;16.90;99.90
68385;DHT22;55336;43.062;25.626;2023-05-29T07:44:23;16.90;99.90
68385;DHT22;55336;43.062;25.626;2023-05-29T07:46:51;16.90;99.90
68385;DHT22;55336;43.062;25.626;2023-05-29T07:49:16;16.90;99.90
68385;DHT22;55336;43.062;25.626;2023-05-29T07:51:42;16.90;99.90
68385;DHT22;55336;43.062;25.626;2023-05-29T07:54:08;16.90;99.90
68385;DHT22;55336;43.062;25.626;2023-05-29T07:56:34;16.90;99.90
68385;DHT22;55336;43.062;25.626;2023-05-29T07:59:01;16.90;99.90
68385;DHT22;55336;43.062;25.626;2023-05-29T08:01:26;16.90;99.90
68385;DHT22;55336;43.062;25.626;2023-05-29T08:03:52;16.90;99.90
68385;DHT22;55336;43.062;25.626;2023-05-29T08:06:18;17.00;99.90
68385;DHT22;55336;43.062;25.626;2023-05-29T08:08:44;17.00;99.90
68385;DHT22;55336;43.062;25.626;2023-05-29T08:11:10;17.20;99.90
68385;DHT22;55336;43.062;25.626;2023-05-29T08:13:36;17.30;99.90
68385;DHT22;55336;43.062;25.626;2023-05-29T08:16:02;17.50;99.90
68385;DHT22;55336;43.062;25.626;2023-05-29T08:18:30;17.60;99.90
68385;DHT22;55336;43.062;25.626;2023-05-29T08:20:56;17.80;99.90
68385;DHT22;55336;43.062;25.626;2023-05-29T08:23:21;17.80;99.90
68385;DHT22;55336;43.062;25.626;2023-05-29T08:25:47;17.90;99.90
68385;DHT22;55336;43.062;25.626;2023-05-29T08:28:14;17.90;99.90
68385;DHT22;55336;43.062;25.626;2023-05-29T08:30:40;17.80;99.90
68385;DHT22;55336;43.062;25.626;2023-05-29T08:33:06;17.80;99.90
68385;DHT22;55336;43.062;25.626;2023-05-29T08:35:32;17.80;99.90
68385;DHT22;55336;43.062;25.626;2023-05-29T08:37:58;17.80;99.90
68385;DHT22;55336;43.062;25.626;2023-05-29T08:40:24;17.80;99.90
68385;DHT22;55336;43.062;25.626;2023-05-29T08:43:12;17.80;99.90
68385;DHT22;55336;43.062;25.626;2023-05-29T08:45:37;17.80;99.90
68385;DHT22;55336;43.062;25.626;2023-05-29T08:48:04;17.70;99.90
68385;DHT22;55336;43.062;25.626;2023-05-29T08:50:31;17.60;99.90
68385;DHT22;55336;43.062;25.626;2023-05-29T08:52:58;17.60;99.90
68385;DHT22;55336;43.062;25.626;2023-05-29T08:55:24;17.70;99.90
68385;DHT22;55336;43.062;25.626;2023-05-29T08:57:50;17.70;99.90
68385;DHT22;55336;43.062;25.626;2023-05-29T09:00:15;17.80;99.90
68385;DHT22;55336;43.062;25.626;2023-05-29T09:02:43;17.90;99.90
68385;DHT22;55336;43.062;25.626;2023-05-29T09:05:09;18.00;99.90
68385;DHT22;55336;43.062;25.626;2023-05-29T09:07:36;18.10;99.90
68385;DHT22;55336;43.062;25.626;2023-05-29T09:10:06;18.20;99.90
68385;DHT22;55336;43.062;25.626;2023-05-29T09:12:32;18.40;99.90
68385;DHT22;55336;43.062;25.626;2023-05-29T09:14:58;18.60;99.90
68385;DHT22;55336;43.062;25.626;2023-05-29T09:17:31;18.50;99.90
68385;DHT22;55336;43.062;25.626;2023-05-29T09:20:00;18.80;99.90
68385;DHT22;55336;43.062;25.626;2023-05-29T09:22:26;18.80;99.90
68385;DHT22;55336;43.062;25.626;2023-05-29T09:24:51;18.80;99.90
68385;DHT22;55336;43.062;25.626;2023-05-29T09:27:18;18.90;99.90
68385;DHT22;55336;43.062;25.626;2023-05-29T09:29:44;19.10;99.90
68385;DHT22;55336;43.062;25.626;2023-05-29T09:32:12;19.20;99.90
68385;DHT22;55336;43.062;25.626;2023-05-29T09:34:38;19.10;99.90
68385;DHT22;55336;43.062;25.626;2023-05-29T09:37:05;19.00;99.90
68385;DHT22;55336;43.062;25.626;2023-05-29T09:39:55;18.80;99.90
68385;DHT22;55336;43.062;25.626;2023-05-29T09:42:20;18.80;99.90
68385;DHT22;55336;43.062;25.626;2023-05-29T09:44:48;18.70;99.90
68385;DHT22;55336;43.062;25.626;2023-05-29T09:47:16;18.50;99.90
68385;DHT22;55336;43.062;25.626;2023-05-29T09:49:42;18.30;99.90
68385;DHT22;55336;43.062;25.626;2023-05-29T09:52:12;18.20;99.90
68385;DHT22;55336;43.062;25.626;2023-05-29T09:54:41;18.20;99.90
68385;DHT22;55336;43.062;25.626;2023-05-29T09:57:07;18.10;99.90
68385;DHT22;55336;43.062;25.626;2023-05-29T09:59:33;18.10;99.90
68385;DHT22;55336;43.062;25.626;2023-05-29T10:02:03;18.30;99.90
68385;DHT22;55336;43.062;25.626;2023-05-29T10:04:37;18.40;99.90
68385;DHT22;55336;43.062;25.626;2023-05-29T10:07:08;18.50;99.90
68385;DHT22;55336;43.062;25.626;2023-05-29T10:09:35;18.60;99.90
68385;DHT22;55336;43.062;25.626;2023-05-29T10:12:04;18.70;99.90
68385;DHT22;55336;43.062;25.626;2023-05-29T10:14:33;18.50;99.90
68385;DHT22;55336;43.062;25.626;2023-05-29T10:17:00;18.80;99.90
68385;DHT22;55336;43.062;25.626;2023-05-29T10:19:28;19.00;99.90
68385;DHT22;55336;43.062;25.626;2023-05-29T10:21:54;19.10;99.90
68385;DHT22;55336;43.062;25.626;2023-05-29T10:24:21;19.50;99.90
68385;DHT22;55336;43.062;25.626;2023-05-29T10:26:48;19.60;99.90
68385;DHT22;55336;43.062;25.626;2023-05-29T10:37:08;19.40;99.90
68385;DHT22;55336;43.062;25.626;2023-05-29T10:39:35;19.30;99.90
68385;DHT22;55336;43.062;25.626;2023-05-29T10:42:01;19.30;99.90
68385;DHT22;55336;43.062;25.626;2023-05-29T10:49:24;19.30;99.90
68385;DHT22;55336;43.062;25.626;2023-05-29T10:51:50;19.50;99.90
68385;DHT22;55336;43.062;25.626;2023-05-29T10:54:16;19.50;99.90
68385;DHT22;55336;43.062;25.626;2023-05-29T10:56:44;19.50;99.90
68385;DHT22;55336;43.062;25.626;2023-05-29T10:59:16;19.30;99.90
68385;DHT22;55336;43.062;25.626;2023-05-29T11:01:42;19.40;99.90
68385;DHT22;55336;43.062;25.626;2023-05-29T11:06:47;19.40;99.90
68385;DHT22;55336;43.062;25.626;2023-05-29T11:14:53;19.00;99.90
68385;DHT22;55336;43.062;25.626;2023-05-29T11:19:55;19.20;99.90
68385;DHT22;55336;43.062;25.626;2023-05-29T11:22:23;19.30;99.90
68385;DHT22;55336;43.062;25.626;2023-05-29T11:24:51;19.40;99.90
68385;DHT22;55336;43.062;25.626;2023-05-29T11:27:18;19.60;99.90
68385;DHT22;55336;43.062;25.626;2023-05-29T11:29:44;19.60;99.90
68385;DHT22;55336;43.062;25.626;2023-05-29T11:32:12;19.80;99.90
68385;DHT22;55336;43.062;25.626;2023-05-29T11:34:40;20.10;99.90
68385;DHT22;55336;43.062;25.626;2023-05-29T11:37:06;20.30;99.90
68385;DHT22;55336;43.062;25.626;2023-05-29T11:39:36;20.40;99.90
68385;DHT22;55336;43.062;25.626;2023-05-29T11:42:02;20.40;99.90
68385;DHT22;55336;43.062;25.626;2023-05-29T11:44:28;20.60;99.90
68385;DHT22;55336;43.062;25.626;2023-05-29T11:47:00;20.60;99.90
68385;DHT22;55336;43.062;25.626;2023-05-29T11:49:33;20.50;99.90
68385;DHT22;55336;43.062;25.626;2023-05-29T11:52:14;20.20;99.90
68385;DHT22;55336;43.062;25.626;2023-05-29T11:54:42;20.10;99.90
68385;DHT22;55336;43.062;25.626;2023-05-29T11:57:21;20.00;99.90
68385;DHT22;55336;43.062;25.626;2023-05-29T11:59:47;19.80;99.90
68385;DHT22;55336;43.062;25.626;2023-05-29T12:02:14;19.50;99.90
68385;DHT22;55336;43.062;25.626;2023-05-29T12:04:40;19.60;99.90
68385;DHT22;55336;43.062;25.626;2023-05-29T12:07:18;19.50;99.90
68385;DHT22;55336;43.062;25.626;2023-05-29T12:09:44;19.70;99.90
68385;DHT22;55336;43.062;25.626;2023-05-29T12:12:10;19.90;99.90
68385;DHT22;55336;43.062;25.626;2023-05-29T12:14:36;20.00;99.90
68385;DHT22;55336;43.062;25.626;2023-05-29T12:17:02;20.00;99.90
68385;DHT22;55336;43.062;25.626;2023-05-29T12:19:28;20.10;99.90
68385;DHT22;55336;43.062;25.626;2023-05-29T12:21:54;20.00;99.90
68385;DHT22;55336;43.062;25.626;2023-05-29T12:24:19;20.00;99.90
68385;DHT22;55336;43.062;25.626;2023-05-29T12:26:45;20.00;99.90
68385;DHT22;55336;43.062;25.626;2023-05-29T12:29:13;19.80;99.90
68385;DHT22;55336;43.062;25.626;2023-05-29T12:31:38;19.80;99.90
68385;DHT22;55336;43.062;25.626;2023-05-29T12:34:08;19.70;99.90
68385;DHT22;55336;43.062;25.626;2023-05-29T12:36:34;19.70;99.90
68385;DHT22;55336;43.062;25.626;2023-05-29T12:38:59;19.70;99.90
68385;DHT22;55336;43.062;25.626;2023-05-29T12:41:27;19.80;99.90
68385;DHT22;55336;43.062;25.626;2023-05-29T12:43:54;19.90;99.90
68385;DHT22;55336;43.062;25.626;2023-05-29T12:46:20;19.90;99.90
68385;DHT22;55336;43.062;25.626;2023-05-29T12:48:46;19.90;99.90
68385;DHT22;55336;43.062;25.626;2023-05-29T12:51:12;19.80;99.90
68385;DHT22;55336;43.062;25.626;2023-05-29T12:53:38;19.80;99.90
68385;DHT22;55336;43.062;25.626;2023-05-29T12:56:03;19.90;99.90
68385;DHT22;55336;43.062;25.626;2023-05-29T12:58:29;19.80;99.90
68385;DHT22;55336;43.062;25.626;2023-05-29T13:00:55;19.90;99.90
68385;DHT22;55336;43.062;25.626;2023-05-29T13:03:21;20.00;99.90
68385;DHT22;55336;43.062;25.626;2023-05-29T13:05:51;20.20;99.90
68385;DHT22;55336;43.062;25.626;2023-05-29T13:08:18;20.10;99.90
68385;DHT22;55336;43.062;25.626;2023-05-29T13:10:44;20.20;99.90
68385;DHT22;55336;43.062;25.626;2023-05-29T13:13:10;20.20;99.90
68385;DHT22;55336;43.062;25.626;2023-05-29T13:15:37;20.00;99.90
68385;DHT22;55336;43.062;25.626;2023-05-29T13:18:05;20.10;99.90
68385;DHT22;55336;43.062;25.626;2023-05-29T13:20:31;20.30;99.90
68385;DHT22;55336;43.062;25.626;2023-05-29T13:22:57;20.20;99.90
68385;DHT22;55336;43.062;25.626;2023-05-29T13:25:23;20.20;99.90
68385;DHT22;55336;43.062;25.626;2023-05-29T13:27:51;20.40;99.90
68385;DHT22;55336;43.062;25.626;2023-05-29T13:30:17;20.50;99.90
68385;DHT22;55336;43.062;25.626;2023-05-29T13:32:43;20.40;99.90
68385;DHT22;55336;43.062;25.626;2023-05-29T13:35:09;20.60;99.90
68385;DHT22;55336;43.062;25.626;2023-05-29T13:37:36;20.70;99.90
68385;DHT22;55336;43.062;25.626;2023-05-29T13:40:03;20.50;99.90
68385;DHT22;55336;43.062;25.626;2023-05-29T13:42:29;20.30;99.90
68385;DHT22;55336;43.062;25.626;2023-05-29T13:44:55;20.20;99.90
68385;DHT22;55336;43.062;25.626;2023-05-29T13:47:20;20.30;99.90
68385;DHT22;55336;43.062;25.626;2023-05-29T13:49:46;20.00;99.90
68385;DHT22;55336;43.062;25.626;2023-05-29T13:52:14;19.90;99.90
68385;DHT22;55336;43.062;25.626;2023-05-29T13:54:41;19.90;99.90
68385;DHT22;55336;43.062;25.626;2023-05-29T13:57:07;19.90;99.90
68385;DHT22;55336;43.062;25.626;2023-05-29T13:59:33;19.90;99.90
68385;DHT22;55336;43.062;25.626;2023-05-29T14:01:59;19.80;99.90
68385;DHT22;55336;43.062;25.626;2023-05-29T14:04:25;19.80;99.90
68385;DHT22;55336;43.062;25.626;2023-05-29T14:06:51;19.90;99.90
68385;DHT22;55336;43.062;25.626;2023-05-29T14:09:17;20.00;99.90
68385;DHT22;55336;43.062;25.626;2023-05-29T14:11:48;19.90;99.90
68385;DHT22;55336;43.062;25.626;2023-05-29T14:14:13;20.10;99.90
68385;DHT22;55336;43.062;25.626;2023-05-29T14:16:41;19.90;99.90
68385;DHT22;55336;43.062;25.626;2023-05-29T14:19:07;20.40;99.90
68385;DHT22;55336;43.062;25.626;2023-05-29T14:21:32;20.60;99.90
68385;DHT22;55336;43.062;25.626;2023-05-29T14:23:58;21.10;99.90
68385;DHT22;55336;43.062;25.626;2023-05-29T14:26:24;21.70;99.90
68385;DHT22;55336;43.062;25.626;2023-05-29T14:28:51;22.00;99.90
68385;DHT22;55336;43.062;25.626;2023-05-29T14:31:18;22.10;99.90
68385;DHT22;55336;43.062;25.626;2023-05-29T14:33:44;22.70;99.90
68385;DHT22;55336;43.062;25.626;2023-05-29T14:36:10;23.20;99.90
68385;DHT22;55336;43.062;25.626;2023-05-29T14:38:36;23.50;99.90
68385;DHT22;55336;43.062;25.626;2023-05-29T14:41:02;23.80;99.90
68385;DHT22;55336;43.062;25.626;2023-05-29T14:43:28;24.00;99.90
68385;DHT22;55336;43.062;25.626;2023-05-29T14:45:53;24.00;99.90
68385;DHT22;55336;43.062;25.626;2023-05-29T14:48:21;24.30;99.90
68385;DHT22;55336;43.062;25.626;2023-05-29T14:50:47;24.80;99.90
68385;DHT22;55336;43.062;25.626;2023-05-29T14:53:13;24.40;99.90
68385;DHT22;55336;43.062;25.626;2023-05-29T14:55:39;23.80;99.90
68385;DHT22;55336;43.062;25.626;2023-05-29T14:58:05;23.80;99.90
68385;DHT22;55336;43.062;25.626;2023-05-29T15:00:31;23.70;99.90
68385;DHT22;55336;43.062;25.626;2023-05-29T15:02:56;23.10;99.90
68385;DHT22;55336;43.062;25.626;2023-05-29T15:05:27;23.00;99.90
68385;DHT22;55336;43.062;25.626;2023-05-29T15:07:53;22.90;99.90
68385;DHT22;55336;43.062;25.626;2023-05-29T15:10:28;22.30;99.90
68385;DHT22;55336;43.062;25.626;2023-05-29T15:12:54;22.10;99.90
68385;DHT22;55336;43.062;25.626;2023-05-29T15:15:23;21.90;99.90
68385;DHT22;55336;43.062;25.626;2023-05-29T15:17:49;21.80;99.90
68385;DHT22;55336;43.062;25.626;2023-05-29T15:20:19;21.80;99.90
68385;DHT22;55336;43.062;25.626;2023-05-29T15:22:45;21.60;99.90
68385;DHT22;55336;43.062;25.626;2023-05-29T15:25:11;21.60;99.90
68385;DHT22;55336;43.062;25.626;2023-05-29T15:27:37;21.60;99.90
68385;DHT22;55336;43.062;25.626;2023-05-29T15:30:21;22.00;99.90
68385;DHT22;55336;43.062;25.626;2023-05-29T15:32:47;22.30;99.90
68385;DHT22;55336;43.062;25.626;2023-05-29T15:35:14;22.60;99.90
68385;DHT22;55336;43.062;25.626;2023-05-29T15:37:41;22.80;99.90
68385;DHT22;55336;43.062;25.626;2023-05-29T15:40:07;22.80;99.90
68385;DHT22;55336;43.062;25.626;2023-05-29T15:42:34;23.20;99.90
68385;DHT22;55336;43.062;25.626;2023-05-29T15:45:01;23.00;99.90
68385;DHT22;55336;43.062;25.626;2023-05-29T15:47:27;22.90;99.90